Hundvaag 1 weather for Apr 2001
Month no. 166
Obs.
Da.
Temp. Dew Point Precip. Wind
Speed
Wind gusts Cloud cover Press. Humidity Wind dir. Sunny OPT
01.04.2001 4,6   8,5     0 1013,5        
02.04.2001 3,6   3,4     4 1015,1     1  
03.04.2001 10,7   0,0     0 1004,8     1  
04.04.2001 4,2   12,4     2 1007,1        
05.04.2001 4,9   19,5     0 1001,5     1  
06.04.2001 2,5   1,1     5 1004,3     1  
07.04.2001 3,5   0,1     2 1003,9        
08.04.2001 6,2   0,1     5 1009,3     1  
09.04.2001 2,6   0,3     8 1012,0     1  
10.04.2001 5,7   0,0     0 1012,0        
11.04.2001 3,0   1,9     0 1019,2     1  
12.04.2001 1,5   0,3     10 1019,5     1  
13.04.2001 -1,7   0,0     10 1023,7     1  
14.04.2001 2,2   0,0     0 1019,5        
15.04.2001 2,7   2,9     0 1006,8        
16.04.2001 3,4   2,8     0 1011,9        
17.04.2001 3,5   1,4     0 1012,4     1  
18.04.2001 1,1   0,8     8 1007,9     1  
19.04.2001 3,9   0,0     2 1007,7     1  
20.04.2001 2,8   0,0     10 1014,1        
21.04.2001 2,4   0,0     3 1015,2     1  
22.04.2001 0,4   0,0     4 1011,9     1  
23.04.2001 1,4   0,0     10 1011,5     1  
24.04.2001 6,1   0,0     0 1009,1        
25.04.2001 3,7   0,0     4 1010,5     1  
26.04.2001 6,0   6,6     0 1010,1     1  
27.04.2001 7,0   1,0     0 1010,1        
28.04.2001 6,3   1,6     7 1008,9     1  
29.04.2001 7,1   0,5     9 1006,9     1  
30.04.2001 6,1   0,0     1 1012,9        
                       
Avrg/Sum 3,9   65,2     3,5 1011,1     19